createdAt,value
2022-09-15T00:00:39.311Z,100460.53
2022-09-15T00:02:47.149Z,100483.19
2022-09-15T00:04:51.978Z,100499.13
2022-09-15T00:06:56.783Z,100515.84
2022-09-15T00:09:01.926Z,100543.91
2022-09-15T00:11:10.141Z,100560.53
2022-09-15T00:13:14.899Z,100571.00
2022-09-15T00:15:19.767Z,100591.25
2022-09-15T00:17:24.679Z,100601.91
2022-09-15T00:19:32.084Z,100615.97
2022-09-15T00:21:39.959Z,100634.31
2022-09-15T00:23:44.746Z,100670.19
2022-09-15T00:25:51.168Z,100674.63
2022-09-15T00:27:55.930Z,100703.53
2022-09-15T00:30:00.745Z,100723.72
2022-09-15T00:32:05.774Z,100739.66
2022-09-15T00:34:10.486Z,100760.00
2022-09-15T00:36:18.835Z,100768.84
2022-09-15T00:38:24.166Z,100753.94
2022-09-15T00:40:28.993Z,100733.66
2022-09-15T00:42:33.998Z,100710.75
2022-09-15T00:44:55.387Z,100680.72
2022-09-15T00:47:18.182Z,100646.53
2022-09-15T00:49:27.551Z,100614.84
2022-09-15T00:51:43.956Z,100573.59
2022-09-15T00:53:51.100Z,100524.28
2022-09-15T00:55:57.207Z,100494.31
2022-09-15T00:58:06.721Z,100453.78
2022-09-15T01:00:14.743Z,100407.97
2022-09-15T01:02:24.527Z,100360.53
2022-09-15T01:04:29.644Z,100308.59
2022-09-15T01:06:42.276Z,100248.81
2022-09-15T01:08:52.827Z,100182.00
2022-09-15T01:10:58.013Z,100103.75
2022-09-15T01:13:07.025Z,100046.56
2022-09-15T01:15:12.214Z,99995.69
2022-09-15T01:17:26.750Z,99943.59
2022-09-15T01:19:59.494Z,99891.78
2022-09-15T01:22:32.553Z,99819.72
2022-09-15T01:24:47.143Z,99724.72
2022-09-15T01:27:18.456Z,99660.44
2022-09-15T01:29:45.709Z,99587.47
2022-09-15T01:32:08.398Z,99533.06
2022-09-15T01:34:19.612Z,99452.97
2022-09-15T01:36:31.316Z,99391.38
2022-09-15T01:38:43.050Z,99372.84
2022-09-15T01:40:54.168Z,99342.06
2022-09-15T01:43:00.988Z,99302.94
2022-09-15T01:45:13.060Z,99286.88
2022-09-15T01:47:22.044Z,99265.88
2022-09-15T01:49:31.775Z,99230.84
2022-09-15T01:51:38.027Z,99216.66
2022-09-15T01:53:43.711Z,99194.63
2022-09-15T01:55:55.409Z,99181.25
2022-09-15T01:58:00.803Z,99167.97
2022-09-15T02:00:10.651Z,99147.75
2022-09-15T02:02:21.203Z,99133.63
2022-09-15T02:04:36.708Z,99127.59
2022-09-15T02:06:52.193Z,99111.88
2022-09-15T02:09:03.218Z,99099.63
2022-09-15T02:11:17.044Z,99074.00
2022-09-15T02:13:29.674Z,99052.16
2022-09-15T02:15:42.365Z,99031.00
2022-09-15T02:17:54.300Z,99005.59
2022-09-15T02:20:05.674Z,98988.19
2022-09-15T02:22:17.753Z,98962.75
2022-09-15T02:24:32.593Z,98958.34
2022-09-15T02:26:41.334Z,98943.38
2022-09-15T02:28:49.904Z,98933.47
2022-09-15T02:31:00.329Z,98927.25
2022-09-15T02:33:11.709Z,98906.09
2022-09-15T02:35:19.828Z,98899.66
2022-09-15T02:37:26.477Z,98886.50
2022-09-15T02:39:36.136Z,98868.16
2022-09-15T02:41:42.184Z,98844.53
2022-09-15T02:43:50.604Z,98836.63
2022-09-15T02:45:58.102Z,98825.78
2022-09-15T02:48:02.974Z,98809.13
2022-09-15T02:50:09.341Z,98791.41
2022-09-15T02:52:14.290Z,98783.63
2022-09-15T02:54:19.065Z,98764.34
2022-09-15T02:56:23.866Z,98746.72
2022-09-15T02:58:28.619Z,98742.28
2022-09-15T03:00:33.532Z,98718.56
2022-09-15T03:02:41.157Z,98707.94
2022-09-15T03:04:45.965Z,98686.94
2022-09-15T03:06:50.874Z,98671.97
2022-09-15T03:08:57.451Z,98663.22
2022-09-15T03:11:02.170Z,98651.63
2022-09-15T03:13:07.908Z,98628.00
2022-09-15T03:15:14.906Z,98608.72
2022-09-15T03:17:19.696Z,98593.03
2022-09-15T03:19:27.072Z,98571.81
2022-09-15T03:21:32.505Z,98557.88
2022-09-15T03:23:37.437Z,98543.66
2022-09-15T03:25:42.223Z,98536.72
2022-09-15T03:27:47.190Z,98520.81
2022-09-15T03:29:54.723Z,98507.50
2022-09-15T03:31:59.704Z,98502.84
2022-09-15T03:34:04.532Z,98487.88
2022-09-15T03:36:12.708Z,98467.00
2022-09-15T03:38:17.828Z,98449.44
2022-09-15T03:40:22.378Z,98439.09
2022-09-15T03:42:27.669Z,98424.97
2022-09-15T03:44:32.490Z,98427.75
2022-09-15T03:46:37.655Z,98421.63
2022-09-15T03:48:42.718Z,98435.44
2022-09-15T03:50:47.633Z,98449.91
2022-09-15T03:52:58.755Z,98447.56
2022-09-15T03:55:03.703Z,98457.06
2022-09-15T03:57:08.437Z,98461.91
2022-09-15T03:59:13.226Z,98470.22
2022-09-15T04:01:18.765Z,98474.31
2022-09-15T04:03:23.555Z,98475.91
2022-09-15T04:05:29.038Z,98467.38
2022-09-15T04:07:34.529Z,98461.81
2022-09-15T04:09:42.051Z,98458.00
2022-09-15T04:11:46.893Z,98456.59
2022-09-15T04:13:52.154Z,98450.06
2022-09-15T04:16:03.824Z,98433.63
2022-09-15T04:18:08.699Z,98408.38
2022-09-15T04:20:13.516Z,98395.94
2022-09-15T04:22:18.288Z,98392.16
2022-09-15T04:24:23.066Z,98393.63
2022-09-15T04:26:32.693Z,98375.09
2022-09-15T04:28:39.637Z,98372.44
2022-09-15T04:30:44.354Z,98360.16
2022-09-15T04:32:50.099Z,98361.72
2022-09-15T04:34:54.856Z,98353.31
2022-09-15T04:36:59.620Z,98357.53
2022-09-15T04:39:05.626Z,98352.13
2022-09-15T04:41:11.459Z,98354.44
2022-09-15T04:43:19.109Z,98315.16
2022-09-15T04:45:23.879Z,98318.72
2022-09-15T04:47:34.927Z,98315.78
2022-09-15T04:49:39.695Z,98317.50
2022-09-15T04:51:44.489Z,98307.41
2022-09-15T04:53:49.738Z,98322.53
2022-09-15T04:55:54.222Z,98313.47
2022-09-15T04:57:59.062Z,98336.97
2022-09-15T05:00:07.686Z,98316.97
2022-09-15T05:02:12.660Z,98327.69
2022-09-15T05:04:17.482Z,98331.22
2022-09-15T05:06:25.010Z,98342.50
2022-09-15T05:08:29.998Z,98337.75
2022-09-15T05:10:35.247Z,98330.56
2022-09-15T05:12:39.761Z,98319.63
2022-09-15T05:14:44.619Z,98321.94
2022-09-15T05:16:52.006Z,98312.47
2022-09-15T05:18:59.330Z,98319.31
2022-09-15T05:21:05.564Z,98330.34
2022-09-15T05:23:10.680Z,98342.97
2022-09-15T05:25:15.433Z,98345.50
2022-09-15T05:27:20.156Z,98350.44
2022-09-15T05:29:24.968Z,98361.50
2022-09-15T05:31:31.465Z,98330.53
2022-09-15T05:33:39.146Z,98314.22
2022-09-15T05:35:52.018Z,98334.00
2022-09-15T05:37:56.851Z,98347.47
2022-09-15T05:40:05.166Z,98339.06
2022-09-15T05:42:13.073Z,98340.19
2022-09-15T05:44:18.151Z,98329.13
2022-09-15T05:46:23.177Z,98349.75
2022-09-15T05:48:28.346Z,98335.88
2022-09-15T05:50:35.496Z,98333.56
2022-09-15T05:52:40.431Z,98345.34
2022-09-15T05:54:45.176Z,98319.31
2022-09-15T05:56:50.010Z,98350.88
2022-09-15T05:58:55.250Z,98341.91
2022-09-15T06:01:00.321Z,98359.69
2022-09-15T06:03:05.673Z,98319.53
2022-09-15T06:05:11.578Z,98332.25
2022-09-15T06:07:19.395Z,98306.97
2022-09-15T06:09:24.368Z,98309.38
2022-09-15T06:11:31.207Z,98280.38
2022-09-15T06:13:36.267Z,98302.56
2022-09-15T06:15:41.025Z,98275.59
2022-09-15T06:17:46.152Z,98238.06
2022-09-15T06:19:50.901Z,98215.41
2022-09-15T06:21:55.689Z,98228.00
2022-09-15T06:24:07.226Z,98222.22
2022-09-15T06:26:14.411Z,98216.13
2022-09-15T06:28:19.663Z,98257.59
2022-09-15T06:30:24.475Z,98242.13
2022-09-15T06:32:29.478Z,98186.84
2022-09-15T06:34:34.987Z,98207.91
2022-09-15T06:36:40.774Z,98211.97
2022-09-15T06:38:46.145Z,98248.25
2022-09-15T06:41:00.330Z,98249.59
2022-09-15T06:43:05.267Z,98219.88
2022-09-15T06:45:11.112Z,98220.78
2022-09-15T06:47:18.437Z,98233.03
2022-09-15T06:49:23.471Z,98228.56
2022-09-15T06:51:31.428Z,98228.88
2022-09-15T06:53:38.183Z,98233.75
2022-09-15T06:55:42.955Z,98253.91
2022-09-15T06:57:50.299Z,98248.00
2022-09-15T06:59:55.131Z,98264.47
2022-09-15T07:02:04.720Z,98359.94
2022-09-15T07:04:11.122Z,98403.75
2022-09-15T07:06:15.855Z,98389.19
2022-09-15T07:08:20.592Z,98423.63
2022-09-15T07:10:25.457Z,98415.19
2022-09-15T07:12:32.045Z,98418.97
2022-09-15T07:14:39.403Z,98400.13
2022-09-15T07:16:44.322Z,98410.56
2022-09-15T07:18:49.742Z,98377.81
2022-09-15T07:20:55.061Z,98382.25
2022-09-15T07:22:59.745Z,98378.56
2022-09-15T07:25:04.561Z,98372.34
2022-09-15T07:27:09.706Z,98335.81
2022-09-15T07:29:14.234Z,98346.66
2022-09-15T07:31:23.770Z,98376.78
2022-09-15T07:33:28.911Z,98353.19
2022-09-15T07:35:33.434Z,98356.97
2022-09-15T07:37:38.534Z,98363.41
2022-09-15T07:39:43.287Z,98341.94
2022-09-15T07:41:48.071Z,98315.03
2022-09-15T07:43:54.482Z,98356.69
2022-09-15T07:46:00.034Z,98361.38
2022-09-15T07:48:07.559Z,98360.97
2022-09-15T07:50:14.426Z,98369.38
2022-09-15T07:52:19.368Z,98338.19
2022-09-15T07:54:24.097Z,98333.31
2022-09-15T07:56:28.873Z,98285.06
2022-09-15T07:58:35.590Z,98305.09
2022-09-15T08:00:40.579Z,98285.38
2022-09-15T08:02:45.270Z,98283.94
2022-09-15T08:04:53.155Z,98330.56
2022-09-15T08:06:57.930Z,98327.06
2022-09-15T08:09:02.881Z,98244.03
2022-09-15T08:11:14.037Z,98247.72
2022-09-15T08:13:21.161Z,98274.00
2022-09-15T08:15:26.372Z,98255.72
2022-09-15T08:17:31.208Z,98278.94
2022-09-15T08:19:37.982Z,98309.34
2022-09-15T08:21:45.372Z,98210.28
2022-09-15T08:23:55.984Z,98218.56
2022-09-15T08:26:01.135Z,98172.88
2022-09-15T08:28:05.897Z,98199.38
2022-09-15T08:30:11.552Z,98210.34
2022-09-15T08:32:16.404Z,98278.00
2022-09-15T08:34:21.705Z,98220.44
2022-09-15T08:36:28.301Z,98213.50
2022-09-15T08:38:36.699Z,98146.56
2022-09-15T08:40:46.052Z,98169.13
2022-09-15T08:42:55.351Z,98137.31
2022-09-15T08:45:04.251Z,98237.50
2022-09-15T08:47:15.051Z,98225.97
2022-09-15T08:49:50.025Z,98220.44
2022-09-15T08:51:54.831Z,98313.78
2022-09-15T08:54:06.314Z,98147.63
2022-09-15T08:56:19.387Z,98160.00
2022-09-15T08:58:26.035Z,98217.53
2022-09-15T09:00:32.394Z,98231.38
2022-09-15T09:03:07.700Z,98182.41
2022-09-15T09:05:25.140Z,98241.69
2022-09-15T09:07:52.921Z,98194.63
2022-09-15T09:10:11.994Z,98171.63
2022-09-15T09:12:32.368Z,98133.97
2022-09-15T09:14:50.522Z,98176.53
2022-09-15T09:17:13.379Z,98140.09
2022-09-15T09:19:31.998Z,98143.56
2022-09-15T09:21:41.571Z,98170.53
2022-09-15T09:23:57.569Z,98197.75
2022-09-15T09:26:09.889Z,98203.75
2022-09-15T09:28:32.691Z,98149.09
2022-09-15T09:30:39.019Z,98166.09
2022-09-15T09:32:49.129Z,98211.56
2022-09-15T09:35:02.103Z,98207.38
2022-09-15T09:37:14.355Z,98189.25
2022-09-15T09:39:19.194Z,98216.84
2022-09-15T09:41:35.809Z,98127.16
2022-09-15T09:43:41.074Z,98173.78
2022-09-15T09:45:46.118Z,98152.69
2022-09-15T09:47:50.947Z,98165.16
2022-09-15T09:49:55.721Z,98125.69
2022-09-15T09:52:03.692Z,98170.88
2022-09-15T09:54:20.640Z,98101.94
2022-09-15T09:56:29.700Z,98071.81
2022-09-15T09:58:34.510Z,98033.44
2022-09-15T10:00:41.827Z,97991.22
2022-09-15T10:02:50.450Z,97969.84
2022-09-15T10:04:56.807Z,98026.78
2022-09-15T10:07:02.583Z,97951.06
2022-09-15T10:09:16.928Z,97966.22
2022-09-15T10:11:22.405Z,98020.25
2022-09-15T10:13:29.778Z,97974.63
2022-09-15T10:15:37.175Z,97930.34
2022-09-15T10:17:45.369Z,97886.25
2022-09-15T10:19:52.777Z,97895.47
2022-09-15T10:21:58.460Z,97827.69
2022-09-15T10:24:27.676Z,97809.81
2022-09-15T10:26:35.758Z,97829.84
2022-09-15T10:28:43.181Z,97835.00
2022-09-15T10:31:06.022Z,97816.78
2022-09-15T10:33:22.097Z,97836.94
2022-09-15T10:35:26.986Z,97845.53
2022-09-15T10:37:36.799Z,97859.81
2022-09-15T10:39:54.793Z,97859.22
2022-09-15T10:42:08.188Z,97885.31
2022-09-15T10:44:30.394Z,97885.34
2022-09-15T10:46:46.618Z,97917.25
2022-09-15T10:49:06.634Z,97928.53
2022-09-15T10:51:26.861Z,97944.34
2022-09-15T10:53:57.158Z,97972.28
2022-09-15T10:56:10.921Z,98016.00
2022-09-15T10:58:31.765Z,98009.16
2022-09-15T11:00:47.445Z,98023.28
2022-09-15T11:03:09.887Z,97997.06
2022-09-15T11:05:32.580Z,97995.84
2022-09-15T11:07:47.820Z,97978.63
2022-09-15T11:09:57.792Z,97962.91
2022-09-15T11:12:16.760Z,97965.59
2022-09-15T11:14:35.678Z,97971.53
2022-09-15T11:16:58.942Z,97944.06
2022-09-15T11:19:21.516Z,97920.09
2022-09-15T11:21:32.693Z,97888.63
2022-09-15T11:23:42.875Z,97894.13
2022-09-15T11:25:51.641Z,97900.31
2022-09-15T11:28:02.862Z,97906.53
2022-09-15T11:30:17.331Z,97905.50
2022-09-15T11:32:29.567Z,97948.69
2022-09-15T11:34:38.377Z,97960.69
2022-09-15T11:36:50.536Z,97965.19
2022-09-15T11:38:59.061Z,97962.16
2022-09-15T11:41:16.948Z,97936.09
2022-09-15T11:43:30.750Z,97927.66
2022-09-15T11:45:44.466Z,97912.06
2022-09-15T11:47:56.480Z,97897.22
2022-09-15T11:50:08.643Z,97887.06
2022-09-15T11:52:41.580Z,97851.69
2022-09-15T11:54:51.927Z,97849.06
2022-09-15T11:56:57.981Z,97822.19
2022-09-15T11:59:10.620Z,97839.56
2022-09-15T12:01:19.503Z,97868.59
2022-09-15T12:03:35.438Z,97885.81
2022-09-15T12:05:46.173Z,97907.63
2022-09-15T12:07:56.544Z,97831.22
2022-09-15T12:10:08.911Z,97796.47
2022-09-15T12:12:19.460Z,97820.03
2022-09-15T12:14:31.774Z,97785.53
2022-09-15T12:16:38.104Z,97767.00
2022-09-15T12:18:52.515Z,97786.69
2022-09-15T12:21:04.663Z,97811.25
2022-09-15T12:23:23.645Z,97832.00
2022-09-15T12:25:33.501Z,97853.03
2022-09-15T12:27:39.032Z,97851.31
2022-09-15T12:29:51.263Z,97809.72
2022-09-15T12:32:22.655Z,97773.91
2022-09-15T12:34:41.148Z,97788.03
2022-09-15T12:36:48.136Z,97787.06
2022-09-15T12:38:53.029Z,97808.50
2022-09-15T12:41:02.480Z,97805.97
2022-09-15T12:43:23.020Z,97815.63
2022-09-15T12:45:30.364Z,97821.59
2022-09-15T12:47:38.217Z,97816.84
2022-09-15T12:49:50.613Z,97830.78
2022-09-15T12:51:55.670Z,97852.00
2022-09-15T12:54:04.789Z,97864.03
2022-09-15T12:56:13.135Z,97860.00
2022-09-15T12:58:21.132Z,97874.94
2022-09-15T13:00:42.412Z,97857.22
2022-09-15T13:02:55.560Z,97881.25
2022-09-15T13:05:03.149Z,97889.59
2022-09-15T13:07:49.558Z,97887.84
2022-09-15T13:10:01.357Z,97890.59
2022-09-15T13:12:08.814Z,97895.75
2022-09-15T13:14:36.115Z,97863.88
2022-09-15T13:16:49.340Z,97837.25
2022-09-15T13:19:06.436Z,97804.09
2022-09-15T13:21:18.707Z,97770.38
2022-09-15T13:23:28.221Z,97787.59
2022-09-15T13:25:33.846Z,97779.13
2022-09-15T13:27:44.335Z,97748.69
2022-09-15T13:29:52.297Z,97725.91
2022-09-15T13:32:06.360Z,97726.88
2022-09-15T13:40:09.729Z,97699.63
2022-09-15T13:42:33.607Z,97674.50
2022-09-15T13:44:56.699Z,97657.44
2022-09-15T13:47:15.351Z,97653.56
2022-09-15T13:49:41.289Z,97663.13
2022-09-15T13:51:53.608Z,97618.16
2022-09-15T13:54:05.267Z,97622.84
2022-09-15T13:56:13.255Z,97610.19
2022-09-15T14:00:51.750Z,97606.09
2022-09-15T14:02:59.339Z,97592.19
2022-09-15T14:05:04.250Z,97591.19
2022-09-15T14:07:09.034Z,97588.28
2022-09-15T14:09:19.937Z,97578.25
2022-09-15T14:11:29.340Z,97578.59
2022-09-15T14:13:34.642Z,97584.38
2022-09-15T14:15:39.601Z,97599.09
2022-09-15T14:17:47.895Z,97611.56
2022-09-15T14:19:54.380Z,97609.03
2022-09-15T14:21:59.280Z,97611.78
2022-09-15T14:24:08.343Z,97625.44
2022-09-15T14:26:17.632Z,97621.94
2022-09-15T14:28:32.658Z,97629.31
2022-09-15T14:30:37.928Z,97631.13
2022-09-15T14:32:47.932Z,97645.88
2022-09-15T14:34:53.684Z,97629.75
2022-09-15T14:37:04.739Z,97627.13
2022-09-15T14:39:21.269Z,97644.16
2022-09-15T14:41:28.635Z,97665.06
2022-09-15T14:43:35.679Z,97672.16
2022-09-15T14:48:10.895Z,97678.09
2022-09-15T14:50:18.036Z,97665.88
2022-09-15T14:52:29.507Z,97678.47
2022-09-15T14:54:39.332Z,97679.47
2022-09-15T14:56:47.553Z,97683.25
2022-09-15T14:58:56.805Z,97699.41
2022-09-15T15:01:05.474Z,97691.72
2022-09-15T15:03:25.853Z,97687.94
2022-09-15T15:05:36.342Z,97705.69
2022-09-15T15:07:42.226Z,97710.75
2022-09-15T15:09:51.064Z,97720.34
2022-09-15T15:12:02.522Z,97723.81
2022-09-15T15:14:11.869Z,97708.72
2022-09-15T15:16:23.440Z,97712.84
2022-09-15T15:18:38.983Z,97689.81
2022-09-15T15:20:52.242Z,97654.41
2022-09-15T15:23:15.498Z,97650.66
2022-09-15T15:25:27.628Z,97655.69
2022-09-15T15:27:54.710Z,97658.59
2022-09-15T15:29:59.578Z,97657.31
2022-09-15T15:32:07.794Z,97657.44
2022-09-15T15:34:27.444Z,97644.97
2022-09-15T15:36:32.996Z,97650.69
2022-09-15T15:38:42.627Z,97658.13
2022-09-15T15:40:50.036Z,97644.72
2022-09-15T15:43:00.012Z,97667.00
2022-09-15T15:45:22.379Z,97682.06
2022-09-15T15:47:28.416Z,97677.78
2022-09-15T15:49:34.759Z,97694.38
2022-09-15T15:51:39.844Z,97702.97
2022-09-15T15:53:44.604Z,97698.66
2022-09-15T15:55:49.420Z,97713.72
2022-09-15T15:57:58.561Z,97720.66
2022-09-15T16:00:03.812Z,97719.03
2022-09-15T16:02:13.708Z,97722.38
2022-09-15T16:04:18.488Z,97716.06
2022-09-15T16:06:23.633Z,97705.28
2022-09-15T16:08:31.101Z,97714.31
2022-09-15T16:10:43.094Z,97703.22
2022-09-15T16:12:48.193Z,97700.84
2022-09-15T16:14:55.493Z,97700.13
2022-09-15T16:17:00.341Z,97697.13
2022-09-15T16:19:05.348Z,97692.19
2022-09-15T16:21:10.177Z,97687.31
2022-09-15T16:23:17.699Z,97680.16
2022-09-15T16:25:30.441Z,97685.31
2022-09-15T16:27:35.333Z,97671.31
2022-09-15T16:29:40.102Z,97657.56
2022-09-15T16:31:47.639Z,97647.63
2022-09-15T16:33:52.590Z,97646.69
2022-09-15T16:36:06.551Z,97668.72
2022-09-15T16:38:11.874Z,97677.94
2022-09-15T16:40:18.102Z,97663.78
2022-09-15T16:42:22.958Z,97677.22
2022-09-15T16:44:27.753Z,97644.31
2022-09-15T16:46:32.665Z,97664.78
2022-09-15T16:48:40.436Z,97650.44
2022-09-15T16:51:01.750Z,97659.28
2022-09-15T16:53:12.310Z,97661.31
2022-09-15T16:55:26.122Z,97669.22
2022-09-15T16:57:30.854Z,97673.06
2022-09-15T16:59:36.116Z,97672.69
2022-09-15T17:01:41.262Z,97675.00
2022-09-15T17:03:48.867Z,97694.25
2022-09-15T17:05:55.264Z,97693.56
2022-09-15T17:08:00.015Z,97689.38
2022-09-15T17:10:08.001Z,97699.63
2022-09-15T17:14:39.297Z,97713.63
2022-09-15T17:16:47.404Z,97719.00
2022-09-15T17:18:54.906Z,97721.88
2022-09-15T17:20:59.737Z,97730.59
2022-09-15T17:23:05.439Z,97747.91
2022-09-15T17:25:23.090Z,97750.94
2022-09-15T17:27:27.835Z,97774.06
2022-09-15T17:29:32.607Z,97765.81
2022-09-15T17:31:37.532Z,97776.34
2022-09-15T17:33:42.405Z,97782.31
2022-09-15T17:35:50.710Z,97786.00
2022-09-15T17:37:56.105Z,97780.75
2022-09-15T17:40:01.245Z,97791.03
2022-09-15T17:42:05.822Z,97785.84
2022-09-15T17:44:16.137Z,97790.25
2022-09-15T17:46:20.985Z,97800.16
2022-09-15T17:48:26.547Z,97798.50
2022-09-15T17:50:33.888Z,97803.00
2022-09-15T17:52:41.815Z,97807.75
2022-09-15T17:54:46.667Z,97822.44
2022-09-15T17:56:51.435Z,97817.81
2022-09-15T17:58:56.275Z,97823.19
2022-09-15T18:01:01.880Z,97816.28
2022-09-15T18:03:15.903Z,97831.50
2022-09-15T18:05:23.640Z,97842.25
2022-09-15T18:07:29.481Z,97838.38
2022-09-15T18:09:36.808Z,97864.25
2022-09-15T18:11:41.671Z,97868.13
2022-09-15T18:13:46.539Z,97877.91
2022-09-15T18:15:52.256Z,97880.31
2022-09-15T18:17:58.789Z,97881.38
2022-09-15T18:20:03.974Z,97909.31
2022-09-15T18:22:08.853Z,97906.81
2022-09-15T18:24:17.881Z,97909.97
2022-09-15T18:26:26.859Z,97925.19
2022-09-15T18:28:31.891Z,97922.78
2022-09-15T18:30:40.749Z,97926.16
2022-09-15T18:32:45.791Z,97928.31
2022-09-15T18:34:50.547Z,97920.03
2022-09-15T18:36:55.437Z,97925.00
2022-09-15T18:39:01.003Z,97922.03
2022-09-15T18:41:05.884Z,97923.00
2022-09-15T18:43:13.305Z,97930.03
2022-09-15T18:45:19.769Z,97934.84
2022-09-15T18:47:24.653Z,97947.97
2022-09-15T18:49:29.628Z,97949.13
2022-09-15T18:51:51.295Z,97952.06
2022-09-15T18:53:57.398Z,97971.06
2022-09-15T18:56:02.138Z,97964.56
2022-09-15T18:58:06.898Z,97961.94
2022-09-15T19:00:17.731Z,97956.69
2022-09-15T19:02:22.577Z,97955.75
2022-09-15T19:04:31.842Z,97956.28
2022-09-15T19:06:41.456Z,97941.38
2022-09-15T19:08:46.290Z,97945.44
2022-09-15T19:11:00.282Z,97938.53
2022-09-15T19:13:05.070Z,97949.66
2022-09-15T19:15:11.734Z,97957.94
2022-09-15T19:17:19.322Z,97955.53
2022-09-15T19:19:24.218Z,97955.03
2022-09-15T19:21:28.969Z,97950.28
2022-09-15T19:23:33.903Z,97949.00
2022-09-15T19:25:40.396Z,97953.34
2022-09-15T19:27:45.188Z,97955.00
2022-09-15T19:29:50.575Z,97953.13
2022-09-15T19:31:55.342Z,97956.38
2022-09-15T19:34:04.229Z,97965.31
2022-09-15T19:36:27.432Z,97970.22
2022-09-15T19:38:33.689Z,97973.28
2022-09-15T19:40:40.855Z,97971.91
2022-09-15T19:42:46.996Z,97978.59
2022-09-15T19:44:52.150Z,97983.56
2022-09-15T19:46:56.815Z,97975.78
2022-09-15T19:49:04.692Z,97989.97
2022-09-15T19:51:10.291Z,97989.34
2022-09-15T19:53:15.287Z,97990.50
2022-09-15T19:55:20.171Z,97989.97
2022-09-15T19:57:25.413Z,97993.75
2022-09-15T19:59:31.560Z,97982.31
2022-09-15T20:01:37.202Z,97984.94
2022-09-15T20:03:42.094Z,97977.81
2022-09-15T20:05:54.714Z,97975.50
2022-09-15T20:08:00.775Z,97974.31
2022-09-15T20:10:06.345Z,97973.16
2022-09-15T20:12:11.384Z,97981.56
2022-09-15T20:14:15.992Z,97992.78
2022-09-15T20:16:23.026Z,97986.63
2022-09-15T20:18:28.322Z,97985.44
2022-09-15T20:20:33.530Z,97984.31
2022-09-15T20:22:40.669Z,97985.34
2022-09-15T20:24:45.402Z,97990.59
2022-09-15T20:26:50.454Z,97990.81
2022-09-15T20:28:55.358Z,98005.84
2022-09-15T20:31:09.326Z,98002.16
2022-09-15T20:33:14.546Z,98011.19
2022-09-15T20:35:19.494Z,98010.75
2022-09-15T20:37:24.548Z,98016.53
2022-09-15T20:39:32.008Z,98014.13
2022-09-15T20:41:37.057Z,98016.19
2022-09-15T20:43:42.749Z,98027.44
2022-09-15T20:45:56.663Z,98023.66
2022-09-15T20:48:01.637Z,98015.69
2022-09-15T20:50:06.846Z,98022.13
2022-09-15T20:52:11.467Z,98017.91
2022-09-15T20:54:16.323Z,98021.38
2022-09-15T20:56:25.657Z,98012.44
2022-09-15T20:58:31.011Z,98007.19
2022-09-15T21:00:35.903Z,98002.16
2022-09-15T21:02:40.671Z,98005.69
2022-09-15T21:04:45.604Z,97999.53
2022-09-15T21:06:50.723Z,97994.78
2022-09-15T21:08:56.219Z,97990.81
2022-09-15T21:11:01.841Z,97988.72
2022-09-15T21:13:09.308Z,97982.31
2022-09-15T21:15:14.297Z,97979.28
2022-09-15T21:17:19.143Z,97976.13
2022-09-15T21:19:23.881Z,97983.16
2022-09-15T21:21:30.504Z,97972.75
2022-09-15T21:23:37.519Z,97980.19
2022-09-15T21:25:42.270Z,97984.91
2022-09-15T21:27:47.015Z,97987.75
2022-09-15T21:29:54.531Z,98003.41
2022-09-15T21:31:59.368Z,97999.63
2022-09-15T21:34:04.653Z,98005.78
2022-09-15T21:36:10.110Z,98003.75
2022-09-15T21:38:15.116Z,98008.16
2022-09-15T21:40:19.928Z,98008.16
2022-09-15T21:42:24.984Z,98012.97
2022-09-15T21:44:29.841Z,98016.72
2022-09-15T21:46:37.222Z,98020.94
2022-09-15T21:48:42.454Z,98012.34
2022-09-15T21:50:52.406Z,98010.25
2022-09-15T21:52:57.623Z,98010.78
2022-09-15T21:55:02.306Z,98017.81
2022-09-15T21:57:07.052Z,98000.84
2022-09-15T21:59:13.389Z,97993.41
2022-09-15T22:01:23.876Z,97981.56
2022-09-15T22:03:31.630Z,97987.44
2022-09-15T22:05:36.389Z,97984.72
2022-09-15T22:07:42.181Z,97989.75
2022-09-15T22:09:46.966Z,97990.63
2022-09-15T22:11:52.189Z,97994.78
2022-09-15T22:13:56.677Z,97985.38
2022-09-15T22:16:05.518Z,97990.69
2022-09-15T22:18:10.424Z,97989.88
2022-09-15T22:20:18.106Z,97989.03
2022-09-15T22:22:23.719Z,97990.69
2022-09-15T22:24:28.627Z,97991.66
2022-09-15T22:26:35.804Z,97989.66
2022-09-15T22:28:40.756Z,98001.75
2022-09-15T22:30:48.308Z,97999.66
2022-09-15T22:32:53.138Z,97994.78
2022-09-15T22:34:57.921Z,97990.69
2022-09-15T22:37:05.305Z,97997.00
2022-09-15T22:39:10.516Z,97995.31
2022-09-15T22:41:16.136Z,97996.47
2022-09-15T22:43:21.124Z,98004.66
2022-09-15T22:45:26.017Z,97997.91
2022-09-15T22:47:30.816Z,98007.31
2022-09-15T22:49:35.667Z,98013.19
2022-09-15T22:51:40.704Z,98021.88
2022-09-15T22:53:48.188Z,98023.94
2022-09-15T22:55:53.137Z,98027.28
2022-09-15T22:57:58.011Z,98034.59
2022-09-15T23:00:02.778Z,98044.81
2022-09-15T23:02:07.765Z,98034.78
2022-09-15T23:04:12.747Z,98049.38
2022-09-15T23:06:17.568Z,98047.50
2022-09-15T23:08:22.343Z,98058.91
2022-09-15T23:10:29.952Z,98050.94
2022-09-15T23:12:35.488Z,98056.84
2022-09-15T23:14:40.278Z,98066.72
2022-09-15T23:16:45.719Z,98070.78
2022-09-15T23:18:51.140Z,98079.16
2022-09-15T23:21:01.136Z,98084.41
2022-09-15T23:23:06.344Z,98091.53
2022-09-15T23:25:11.546Z,98109.28
2022-09-15T23:27:18.984Z,98119.22
2022-09-15T23:29:26.200Z,98131.31
2022-09-15T23:31:31.053Z,98138.25
2022-09-15T23:33:36.060Z,98138.63
2022-09-15T23:35:40.739Z,98139.47
2022-09-15T23:37:45.453Z,98148.06
2022-09-15T23:39:50.628Z,98146.59
2022-09-15T23:41:55.202Z,98147.69
2022-09-15T23:44:02.584Z,98148.06
2022-09-15T23:46:07.973Z,98148.72
2022-09-15T23:48:13.377Z,98157.25
2022-09-15T23:50:18.357Z,98147.41
2022-09-15T23:52:23.125Z,98150.03
2022-09-15T23:54:28.098Z,98153.13
2022-09-15T23:56:33.899Z,98142.25
2022-09-15T23:58:41.325Z,98143.44
